Mineral Point, PA (15942)

12:20 AM EST on December 08, 2016 (GMT -0500)
Jackson Twp - Swigle Mountain Road | | Change Station

Elev 2277 ft 40.40 °N, 78.80 °W | Updated 1 second ago

Overcast
Overcast
31.7 °F
Feels Like 24 °F
N
9.2
Wind Variable Wind from SW
Gusts 9.2 mph

Today
High -- | Low -- °F
--% Chance of Precip.
Yesterday
High -- | Low -- °F
Precip. -- in
Pressure 30.05 in
Visibility 10.0 miles
Clouds Overcast 10000 ft
Windchill 24 °F
Dew Point 23 °F
Humidity 69%
Rainfall 0.00 in
Snow Depth Not available.
7:26 AM 4:48 PM
First Quarter, 59% visible
METAR KJST 080454Z AUTO 23010KT 10SM OVC100 00/M08 A2999 RMK AO2 SLP176 T00001078 400331006 TSNO
Pressure 30.05 in
Visibility 10.0 miles
Clouds Overcast 10000 ft
Windchill 24 °F
Dew Point 23 °F
Humidity 69%
Rainfall 0.00 in
Snow Depth Not available.
7:26 AM 4:48 PM
First Quarter, 59% visible
METAR KJST 080454Z AUTO 23010KT 10SM OVC100 00/M08 A2999 RMK AO2 SLP176 T00001078 400331006 TSNO

10-Day Weather Forecast

Almanac

Astronomy

Dec. 08, 2016 Rise Set
Actual Time
Civil Twilight
Nautical Twilight
Astronomical Twilight
Moon
Length of Visible Light
Length of Day
Tomorrow will be .
, % of the Moon is Illuminated

Today's Extremes

State Highs State Lows

Community

WunderPhotos

Upload Photos

1,956,259 photos uploaded!

WunderBlog® & News

Nearby

Air Quality

  Air Quality AQ Index Pollutant
Not available.

Snow Depth

Station Depth Elevation

Earthquake Activity

City Distance Mag. Time & Date
Minimum magnitude displayed is 2.5.

Coastal Water Temperatures

Place Temperature

Stations

Nearby Weather Stations

Station Location Temp. Windchill Dew Point Humidity Wind Precip. Elev Updated Type
                   

Watches & Warnings

There are currently no watches in effect.